Time;durP1;ratioP1;P1;durP2;ratioP2;P2;SDS_P1;SDS_P2;PMS_P1;PMS_P2;Temp;Humidity;BMP_temperature;BMP_pressure;BME280_temperature;BME280_humidity;BME280_pressure;Samples;Min_cycle;Max_cycle;Signal;HPM_P1;HPM_P2
2023/03/24 00:00:01;;;;;;;14.83;6.00;;;11.00;99.90;;;;;;4887354;29;20289;-75
2023/03/24 00:02:27;;;;;;;14.50;6.40;;;11.00;99.90;;;;;;4888567;29;20539;-75
2023/03/24 00:04:57;;;;;;;16.90;6.47;;;11.00;99.90;;;;;;4887876;29;20356;-75
2023/03/24 00:07:29;;;;;;;13.37;5.90;;;11.00;99.90;;;;;;4867076;29;20616;-76
2023/03/24 00:09:55;;;;;;;13.20;5.73;;;11.00;99.90;;;;;;4867706;29;20860;-75
2023/03/24 00:12:21;;;;;;;13.30;6.03;;;11.00;99.90;;;;;;4880532;29;20356;-76
2023/03/24 00:14:46;;;;;;;15.07;6.13;;;11.00;99.90;;;;;;4878705;29;21359;-76
2023/03/24 00:17:12;;;;;;;15.70;5.87;;;11.00;99.90;;;;;;4879532;29;20579;-76
2023/03/24 00:19:39;;;;;;;12.13;5.40;;;11.00;99.90;;;;;;4882590;29;20045;-76
2023/03/24 00:22:07;;;;;;;14.43;5.23;;;10.90;99.90;;;;;;4866998;29;20037;-76
2023/03/24 00:24:33;;;;;;;14.93;6.20;;;11.00;99.90;;;;;;4865047;29;21086;-75
2023/03/24 00:26:59;;;;;;;14.37;5.90;;;11.00;99.90;;;;;;4886467;29;20296;-75
2023/03/24 00:29:26;;;;;;;14.07;5.70;;;10.90;99.90;;;;;;4874004;29;20344;-75
2023/03/24 00:31:52;;;;;;;13.97;5.33;;;10.90;99.90;;;;;;4872428;29;20308;-75
2023/03/24 00:34:22;;;;;;;14.13;5.57;;;10.90;99.90;;;;;;4876381;29;20296;-75
2023/03/24 00:36:52;;;;;;;11.50;5.07;;;10.90;99.90;;;;;;4874777;29;20296;-75
2023/03/24 00:39:19;;;;;;;13.40;5.47;;;10.90;99.90;;;;;;4872459;29;20363;-74
2023/03/24 00:41:46;;;;;;;13.17;5.63;;;10.90;99.90;;;;;;4872130;29;20323;-75
2023/03/24 00:44:17;;;;;;;14.00;5.10;;;10.90;99.90;;;;;;4891298;29;20285;-75
2023/03/24 00:46:56;;;;;;;11.47;5.23;;;10.80;99.90;;;;;;4872412;29;20292;-75
2023/03/24 00:49:43;;;;;;;10.03;4.67;;;10.80;99.90;;;;;;4888250;29;20289;-75
2023/03/24 00:52:19;;;;;;;11.63;4.97;;;10.80;99.90;;;;;;4871219;29;20300;-75
2023/03/24 00:54:49;;;;;;;9.40;4.57;;;10.80;99.90;;;;;;4887640;29;20287;-76
2023/03/24 00:57:20;;;;;;;11.47;4.67;;;10.80;99.90;;;;;;4885901;29;20697;-75
2023/03/24 00:59:51;;;;;;;11.87;4.90;;;10.80;99.90;;;;;;4871466;29;20323;-75
2023/03/24 01:02:21;;;;;;;8.27;4.37;;;10.80;99.90;;;;;;4871524;29;20304;-75
2023/03/24 01:04:55;;;;;;;8.27;4.87;;;10.80;99.90;;;;;;4886409;29;20303;-75
2023/03/24 01:07:25;;;;;;;10.00;4.53;;;10.80;99.90;;;;;;4871074;29;20871;-75
2023/03/24 01:09:56;;;;;;;9.97;4.53;;;10.90;99.90;;;;;;4887077;29;20372;-75
2023/03/24 01:12:27;;;;;;;10.63;4.30;;;10.90;99.90;;;;;;4872485;29;20365;-76
2023/03/24 01:14:54;;;;;;;11.63;5.40;;;10.90;99.90;;;;;;4872487;29;20292;-75
2023/03/24 01:17:24;;;;;;;12.60;5.23;;;10.90;99.90;;;;;;4888179;29;20364;-76
2023/03/24 01:19:53;;;;;;;8.13;4.67;;;10.90;99.90;;;;;;4873664;29;20301;-76
2023/03/24 01:22:19;;;;;;;10.13;4.93;;;10.90;99.90;;;;;;4873884;29;20320;-76
2023/03/24 01:24:49;;;;;;;10.80;4.63;;;10.90;99.90;;;;;;4886332;29;20300;-75
2023/03/24 01:27:14;;;;;;;10.13;5.07;;;11.00;99.90;;;;;;4872156;29;20295;-76
2023/03/24 01:29:41;;;;;;;7.80;4.60;;;11.00;99.90;;;;;;4885618;29;20387;-75
2023/03/24 01:32:07;;;;;;;10.03;5.57;;;10.90;99.90;;;;;;4859912;29;20048;-75
2023/03/24 01:34:34;;;;;;;11.73;5.60;;;10.90;99.90;;;;;;4870045;29;20991;-76
2023/03/24 01:37:00;;;;;;;8.57;4.77;;;10.90;99.90;;;;;;4869042;29;20360;-76
2023/03/24 01:39:26;;;;;;;8.17;4.70;;;10.90;99.90;;;;;;4864623;29;20304;-76
2023/03/24 01:41:52;;;;;;;8.70;4.83;;;10.90;99.90;;;;;;4877457;29;20312;-76
2023/03/24 01:44:27;;;;;;;11.90;6.47;;;10.90;99.90;;;;;;4885698;29;20285;-75
2023/03/24 01:46:55;;;;;;;9.23;5.03;;;10.90;99.90;;;;;;4884993;29;20293;-76
2023/03/24 01:49:23;;;;;;;10.10;4.93;;;10.90;99.90;;;;;;4887023;29;20124;-76
2023/03/24 01:51:54;;;;;;;10.37;5.03;;;10.90;99.90;;;;;;4889045;29;20292;-75
2023/03/24 01:54:49;;;;;;;9.23;5.00;;;10.90;99.90;;;;;;4873049;29;20291;-76
2023/03/24 01:57:32;;;;;;;7.10;4.80;;;11.00;99.90;;;;;;4865486;29;20324;-75
2023/03/24 02:00:03;;;;;;;8.17;4.53;;;11.00;99.90;;;;;;4880175;29;20284;-76
2023/03/24 02:02:33;;;;;;;9.63;4.97;;;11.00;99.90;;;;;;4870143;29;20301;-75
2023/03/24 02:05:04;;;;;;;9.70;5.00;;;11.00;99.90;;;;;;4870446;29;20301;-75
2023/03/24 02:07:35;;;;;;;8.80;5.47;;;11.00;99.90;;;;;;4867714;29;20285;-76
2023/03/24 02:10:06;;;;;;;7.13;5.10;;;11.00;99.90;;;;;;4870286;29;20741;-76
2023/03/24 02:12:32;;;;;;;9.93;5.27;;;11.00;99.90;;;;;;4862730;29;20331;-76
2023/03/24 02:14:59;;;;;;;9.40;5.33;;;11.00;99.90;;;;;;4883702;29;20292;-75
2023/03/24 02:17:37;;;;;;;10.90;5.50;;;11.10;99.90;;;;;;4898871;29;20124;-76
2023/03/24 02:20:18;;;;;;;8.20;5.43;;;11.10;99.90;;;;;;4868550;29;20829;-76
2023/03/24 02:22:57;;;;;;;8.90;5.30;;;11.10;99.90;;;;;;4879467;29;20301;-75
2023/03/24 02:25:56;;;;;;;8.17;5.40;;;11.10;99.90;;;;;;4881967;29;20279;-76
2023/03/24 02:28:49;;;;;;;19.97;5.67;;;11.10;99.90;;;;;;4882862;29;20285;-76
2023/03/24 02:31:27;;;;;;;11.40;5.53;;;11.10;99.90;;;;;;4876465;29;20380;-76
2023/03/24 02:34:24;;;;;;;8.40;5.87;;;11.10;99.90;;;;;;4880745;29;20310;-76
2023/03/24 02:37:17;;;;;;;9.20;5.90;;;11.10;99.90;;;;;;4889190;29;20297;-76
2023/03/24 02:40:10;;;;;;;8.73;5.23;;;11.20;99.90;;;;;;4889327;29;20344;-76
2023/03/24 02:43:13;;;;;;;10.00;6.10;;;11.20;99.90;;;;;;4880169;29;20320;-76
2023/03/24 02:46:12;;;;;;;9.50;6.20;;;11.10;99.90;;;;;;4873694;29;20286;-75
2023/03/24 02:48:56;;;;;;;8.23;5.27;;;11.10;99.90;;;;;;4857029;29;20294;-76
2023/03/24 02:51:31;;;;;;;8.20;5.17;;;11.00;99.90;;;;;;4865510;29;20297;-77
2023/03/24 02:54:17;;;;;;;12.80;5.25;;;10.90;99.90;;;;;;4876627;29;20294;-77
2023/03/24 02:56:48;;;;;;;8.37;5.43;;;10.90;99.90;;;;;;4869221;29;20052;-77
2023/03/24 02:59:30;;;;;;;6.67;4.73;;;10.80;99.90;;;;;;4871005;29;20289;-76
2023/03/24 03:02:13;;;;;;;6.30;3.47;;;10.70;99.90;;;;;;4888017;29;20305;-77
2023/03/24 03:04:49;;;;;;;5.77;2.27;;;10.60;99.90;;;;;;4870024;29;20562;-76
2023/03/24 03:07:20;;;;;;;4.97;1.77;;;10.60;99.90;;;;;;4872613;29;20328;-77
2023/03/24 03:10:09;;;;;;;4.55;1.70;;;10.50;99.90;;;;;;4885536;29;20295;-76
2023/03/24 03:12:37;;;;;;;6.82;2.03;;;10.50;99.90;;;;;;4867442;29;20501;-75
2023/03/24 03:15:11;;;;;;;7.63;1.67;;;10.40;99.90;;;;;;4885991;29;20048;-76
2023/03/24 03:18:10;;;;;;;6.57;1.77;;;10.30;99.90;;;;;;4885354;29;20499;-76
2023/03/24 03:20:49;;;;;;;5.65;1.50;;;10.30;99.90;;;;;;4870717;29;20063;-76
2023/03/24 03:23:19;;;;;;;7.25;1.95;;;10.20;99.90;;;;;;4857771;29;20041;-76
2023/03/24 03:25:51;;;;;;;11.80;2.10;;;10.20;99.90;;;;;;4870546;29;20124;-76
2023/03/24 03:28:21;;;;;;;8.13;1.40;;;10.10;99.90;;;;;;4869257;29;20041;-76
2023/03/24 03:30:53;;;;;;;7.65;2.00;;;10.10;99.90;;;;;;4885100;29;20104;-77
2023/03/24 03:33:29;;;;;;;8.77;1.77;;;10.00;99.90;;;;;;4869665;29;20629;-77
2023/03/24 03:36:08;;;;;;;9.65;1.52;;;10.00;99.90;;;;;;4869338;29;20045;-76
2023/03/24 03:38:36;;;;;;;9.02;1.45;;;10.00;99.90;;;;;;4868942;29;20052;-77
2023/03/24 03:41:04;;;;;;;9.88;1.90;;;9.90;99.90;;;;;;4868362;29;20084;-76
2023/03/24 03:43:32;;;;;;;6.28;1.40;;;9.90;99.90;;;;;;4868224;29;20044;-77
2023/03/24 03:45:59;;;;;;;12.43;2.65;;;9.80;99.90;;;;;;4883612;29;20052;-76
2023/03/24 03:48:26;;;;;;;8.45;1.40;;;9.80;99.90;;;;;;4869458;29;20044;-76
2023/03/24 03:50:53;;;;;;;13.05;1.80;;;9.70;99.90;;;;;;4869867;29;20056;-76
2023/03/24 03:53:23;;;;;;;7.30;1.50;;;9.70;99.90;;;;;;4869879;29;20048;-76
2023/03/24 03:55:49;;;;;;;9.93;1.67;;;9.70;99.90;;;;;;4861851;29;20136;-76
2023/03/24 03:58:14;;;;;;;8.97;1.60;;;9.60;99.90;;;;;;4869643;29;20083;-76
2023/03/24 04:00:43;;;;;;;10.80;1.83;;;9.60;99.90;;;;;;4884124;29;20053;-76
2023/03/24 04:03:21;;;;;;;11.45;1.70;;;9.50;99.90;;;;;;4885457;29;20465;-75
2023/03/24 04:06:03;;;;;;;7.90;1.60;;;9.30;99.90;;;;;;4878519;29;20045;-76
2023/03/24 04:08:44;;;;;;;8.82;1.65;;;9.30;99.90;;;;;;4869470;29;20927;-75
2023/03/24 04:11:24;;;;;;;10.82;1.67;;;9.10;99.90;;;;;;4861009;29;20048;-76
2023/03/24 04:14:16;;;;;;;9.05;1.50;;;9.10;99.90;;;;;;4886765;29;20084;-75
2023/03/24 04:17:03;;;;;;;10.65;2.10;;;8.90;99.90;;;;;;4875341;29;20041;-75
2023/03/24 04:20:00;;;;;;;9.73;1.83;;;8.90;99.90;;;;;;4885680;29;20132;-75
2023/03/24 04:22:54;;;;;;;12.10;2.05;;;8.80;99.90;;;;;;4882006;29;20044;-75
2023/03/24 04:26:00;;;;;;;12.85;1.63;;;8.80;99.90;;;;;;4891431;29;20416;-74
2023/03/24 04:29:08;;;;;;;9.60;1.70;;;8.70;99.90;;;;;;4870810;29;20045;-75
2023/03/24 04:31:40;;;;;;;10.88;1.80;;;8.60;99.90;;;;;;4867870;29;20695;-76
2023/03/24 04:34:20;;;;;;;14.10;2.47;;;8.60;99.90;;;;;;4884908;29;20110;-75
2023/03/24 04:37:02;;;;;;;13.27;2.63;;;8.60;99.90;;;;;;4874210;29;20051;-75
2023/03/24 04:39:33;;;;;;;14.48;3.00;;;8.60;99.90;;;;;;4869679;29;20044;-75
2023/03/24 04:42:04;;;;;;;14.00;2.15;;;8.50;99.90;;;;;;4886761;29;20128;-74
2023/03/24 04:44:31;;;;;;;9.65;2.17;;;8.60;99.90;;;;;;4886993;29;20051;-75
2023/03/24 04:47:00;;;;;;;13.77;2.50;;;8.60;99.90;;;;;;4879722;29;20683;-75
2023/03/24 04:49:26;;;;;;;16.08;3.13;;;8.60;99.90;;;;;;4886997;29;20051;-75
2023/03/24 04:51:53;;;;;;;19.23;3.17;;;8.50;99.90;;;;;;4870567;29;20505;-75
2023/03/24 04:54:20;;;;;;;14.57;2.58;;;8.50;99.90;;;;;;4886669;29;20103;-76
2023/03/24 04:56:52;;;;;;;20.05;2.70;;;8.50;99.90;;;;;;4872574;29;20563;-75
2023/03/24 04:59:18;;;;;;;16.60;3.05;;;8.40;99.90;;;;;;4892949;29;20113;-75
2023/03/24 05:01:51;;;;;;;18.02;3.20;;;8.40;99.90;;;;;;4887020;29;20584;-75
2023/03/24 05:04:18;;;;;;;18.30;2.95;;;8.40;99.90;;;;;;4870221;29;20052;-75
2023/03/24 05:06:45;;;;;;;16.38;2.95;;;8.40;99.90;;;;;;4897400;29;20648;-74
2023/03/24 05:09:13;;;;;;;15.35;2.63;;;8.40;99.90;;;;;;4884833;29;20048;-75
2023/03/24 05:11:39;;;;;;;18.25;2.45;;;8.40;99.90;;;;;;4862265;29;20579;-75
2023/03/24 05:14:05;;;;;;;12.43;3.30;;;8.30;99.90;;;;;;4870334;29;20049;-75
2023/03/24 05:16:31;;;;;;;13.77;2.70;;;8.30;99.90;;;;;;4886532;29;20041;-75
2023/03/24 05:18:56;;;;;;;11.87;2.43;;;8.30;99.90;;;;;;4870922;29;20075;-74
2023/03/24 05:21:22;;;;;;;20.80;3.40;;;8.30;99.90;;;;;;4871936;29;20041;-74
2023/03/24 05:23:48;;;;;;;14.60;2.30;;;8.20;99.90;;;;;;4888940;29;20037;-74
2023/03/24 05:26:13;;;;;;;18.13;3.00;;;8.20;99.90;;;;;;4890853;29;20080;-75
2023/03/24 05:28:39;;;;;;;17.97;2.70;;;8.10;99.90;;;;;;4887867;29;20052;-74
2023/03/24 05:31:05;;;;;;;19.67;3.38;;;8.10;99.90;;;;;;4874370;29;20052;-74
2023/03/24 05:33:31;;;;;;;15.93;2.80;;;8.10;99.90;;;;;;4874448;29;20420;-75
2023/03/24 05:35:57;;;;;;;18.53;2.67;;;8.10;99.90;;;;;;4889432;29;20060;-75
2023/03/24 05:38:22;;;;;;;20.13;2.63;;;8.10;99.90;;;;;;4866124;29;20033;-74
2023/03/24 05:40:48;;;;;;;19.27;2.67;;;8.10;99.90;;;;;;4876261;29;20119;-74
2023/03/24 05:43:14;;;;;;;16.63;3.00;;;8.10;99.90;;;;;;4874974;29;20052;-74
2023/03/24 05:45:40;;;;;;;16.50;2.20;;;8.00;99.90;;;;;;4890533;29;20044;-74
2023/03/24 05:48:06;;;;;;;20.27;3.37;;;8.00;99.90;;;;;;4889928;29;20041;-74
2023/03/24 05:50:32;;;;;;;19.07;2.87;;;8.00;99.90;;;;;;4872995;29;20040;-74
2023/03/24 05:52:58;;;;;;;12.43;2.78;;;8.00;99.90;;;;;;4872503;29;20714;-74
2023/03/24 05:55:24;;;;;;;13.40;2.40;;;8.00;99.90;;;;;;4890487;29;20041;-74
2023/03/24 05:57:50;;;;;;;12.65;2.40;;;8.00;99.90;;;;;;4873996;29;20500;-74
2023/03/24 06:00:16;;;;;;;18.30;2.88;;;8.10;99.90;;;;;;4888445;29;20048;-74
2023/03/24 06:02:45;;;;;;;20.65;2.50;;;8.10;99.90;;;;;;4863130;29;20052;-74
2023/03/24 06:05:12;;;;;;;11.15;1.88;;;8.10;99.90;;;;;;4880950;29;20121;-74
2023/03/24 06:07:41;;;;;;;11.05;2.38;;;8.10;99.90;;;;;;4872703;29;20051;-74
2023/03/24 06:10:10;;;;;;;19.10;2.60;;;8.10;99.90;;;;;;4872777;29;20095;-75
2023/03/24 06:12:36;;;;;;;19.10;3.00;;;8.20;99.90;;;;;;4886270;29;20442;-75
2023/03/24 06:15:03;;;;;;;14.10;2.08;;;8.20;99.90;;;;;;4872864;29;20051;-74
2023/03/24 06:17:29;;;;;;;14.35;2.38;;;8.20;99.90;;;;;;4873201;29;20080;-74
2023/03/24 06:20:01;;;;;;;20.10;2.92;;;8.30;99.90;;;;;;4878941;29;20049;-74
2023/03/24 06:22:27;;;;;;;16.38;2.45;;;8.30;99.90;;;;;;4881533;29;20057;-74
2023/03/24 06:24:55;;;;;;;21.42;2.90;;;8.30;99.90;;;;;;4872800;29;20064;-74
2023/03/24 06:27:24;;;;;;;19.95;2.55;;;8.30;99.90;;;;;;4889564;29;20366;-75
2023/03/24 06:29:53;;;;;;;21.88;2.85;;;8.40;99.90;;;;;;4886622;29;20076;-75
2023/03/24 06:32:19;;;;;;;19.08;2.88;;;8.40;99.90;;;;;;4884811;29;20048;-75
2023/03/24 06:34:45;;;;;;;18.92;2.65;;;8.40;99.90;;;;;;4888002;29;20068;-75
2023/03/24 06:37:10;;;;;;;20.60;2.90;;;8.40;99.90;;;;;;4883493;29;20272;-74
2023/03/24 06:39:37;;;;;;;15.37;2.50;;;8.40;99.90;;;;;;4884816;29;20127;-76
2023/03/24 06:42:04;;;;;;;20.05;2.72;;;8.50;99.90;;;;;;4873443;29;20127;-74
2023/03/24 06:44:30;;;;;;;16.73;3.63;;;8.50;99.90;;;;;;4876738;29;20401;-74
2023/03/24 06:46:55;;;;;;;16.83;3.07;;;8.60;99.90;;;;;;4872314;29;20076;-74
2023/03/24 06:49:21;;;;;;;14.20;2.27;;;8.60;99.90;;;;;;4889359;29;20036;-75
2023/03/24 06:51:47;;;;;;;22.33;3.13;;;8.70;99.90;;;;;;4872430;29;20048;-75
2023/03/24 06:54:13;;;;;;;21.13;3.07;;;8.70;99.90;;;;;;4885726;29;20052;-75
2023/03/24 06:56:38;;;;;;;20.07;2.33;;;8.70;99.90;;;;;;4872336;29;20161;-75
2023/03/24 06:59:04;;;;;;;27.43;4.57;;;8.70;99.90;;;;;;4890507;29;20143;-75
2023/03/24 07:01:31;;;;;;;20.40;3.10;;;8.80;99.90;;;;;;4882280;29;20084;-75
2023/03/24 07:03:56;;;;;;;17.10;2.95;;;8.90;99.90;;;;;;4873362;29;20044;-75
2023/03/24 07:06:22;;;;;;;21.27;3.23;;;9.00;99.90;;;;;;4887463;29;20052;-75
2023/03/24 07:08:49;;;;;;;16.83;3.33;;;9.10;99.90;;;;;;4885084;29;20092;-75
2023/03/24 07:11:15;;;;;;;24.77;3.67;;;9.20;99.90;;;;;;4871579;29;20485;-75
2023/03/24 07:13:41;;;;;;;23.50;3.03;;;9.30;99.90;;;;;;4872444;29;20528;-74
2023/03/24 07:16:07;;;;;;;22.63;4.57;;;9.40;99.90;;;;;;4872734;29;20052;-75
2023/03/24 07:18:32;;;;;;;19.43;3.30;;;9.40;99.90;;;;;;4887049;29;20135;-75
2023/03/24 07:20:58;;;;;;;21.67;3.00;;;9.40;99.90;;;;;;4887972;29;20583;-74
2023/03/24 07:23:26;;;;;;;34.37;4.13;;;9.40;99.90;;;;;;4887697;29;20044;-76
2023/03/24 07:25:52;;;;;;;26.27;3.85;;;9.40;99.90;;;;;;4872461;29;20127;-75
2023/03/24 07:28:18;;;;;;;17.40;3.47;;;9.50;99.90;;;;;;4887598;29;20068;-75
2023/03/24 07:30:44;;;;;;;24.48;3.17;;;9.50;99.90;;;;;;4871315;29;20532;-75
2023/03/24 07:33:11;;;;;;;20.63;3.17;;;9.50;99.90;;;;;;4870866;29;20043;-75
2023/03/24 07:35:38;;;;;;;22.50;3.70;;;9.60;99.90;;;;;;4887825;29;20056;-76
2023/03/24 07:38:04;;;;;;;25.95;4.70;;;9.50;99.90;;;;;;4881577;29;20041;-76
2023/03/24 07:40:30;;;;;;;20.70;3.60;;;9.50;99.90;;;;;;4869284;29;20051;-76
2023/03/24 07:42:59;;;;;;;23.55;3.28;;;9.50;99.90;;;;;;4867657;29;20184;-76
2023/03/24 07:45:27;;;;;;;26.65;4.30;;;9.60;99.90;;;;;;4888963;29;20036;-76
2023/03/24 07:47:53;;;;;;;22.30;3.47;;;9.70;99.90;;;;;;4890902;29;20387;-75
2023/03/24 07:50:19;;;;;;;26.73;3.47;;;9.70;99.90;;;;;;4875040;29;20044;-76
2023/03/24 07:52:49;;;;;;;27.03;4.70;;;9.70;99.90;;;;;;4873803;29;20064;-76
2023/03/24 07:55:15;;;;;;;24.38;4.78;;;9.70;99.90;;;;;;4890877;29;20045;-76
2023/03/24 07:57:42;;;;;;;28.08;4.45;;;9.70;99.90;;;;;;4890265;29;20044;-77
2023/03/24 08:00:14;;;;;;;23.27;6.03;;;9.60;99.90;;;;;;4889454;29;20093;-77
2023/03/24 08:02:40;;;;;;;24.88;4.70;;;9.70;99.90;;;;;;4889167;29;20068;-77
2023/03/24 08:05:09;;;;;;;24.75;5.32;;;9.80;99.90;;;;;;4890173;29;20074;-77
2023/03/24 08:07:35;;;;;;;23.50;4.78;;;9.90;99.90;;;;;;4887878;29;20069;-77
2023/03/24 08:10:05;;;;;;;28.13;4.72;;;10.00;99.90;;;;;;4903934;29;20079;-77
2023/03/24 08:12:31;;;;;;;24.58;4.57;;;10.10;99.90;;;;;;4889130;29;20582;-75
2023/03/24 08:14:56;;;;;;;25.97;5.57;;;10.20;99.90;;;;;;4876535;29;20045;-76
2023/03/24 08:17:22;;;;;;;26.53;5.10;;;10.30;99.90;;;;;;4872515;29;20053;-76
2023/03/24 08:19:48;;;;;;;28.23;5.10;;;10.30;99.90;;;;;;4890312;29;20059;-76
2023/03/24 08:22:13;;;;;;;22.60;5.80;;;10.30;99.90;;;;;;4881330;29;20049;-76
2023/03/24 08:24:39;;;;;;;28.13;6.10;;;10.30;99.90;;;;;;4872656;29;20037;-76
2023/03/24 08:27:09;;;;;;;24.38;4.80;;;10.30;99.90;;;;;;4869946;29;20104;-76
2023/03/24 08:29:35;;;;;;;22.40;3.85;;;10.40;99.90;;;;;;4887803;29;20040;-78
2023/03/24 08:32:00;;;;;;;23.17;5.97;;;10.50;99.90;;;;;;4889589;29;20051;-76
2023/03/24 08:34:27;;;;;;;21.87;4.23;;;10.50;99.90;;;;;;4887565;29;20041;-77
2023/03/24 08:36:52;;;;;;;22.38;4.35;;;10.50;99.90;;;;;;4889373;29;20501;-77
2023/03/24 08:39:19;;;;;;;23.27;3.90;;;10.50;99.90;;;;;;4887283;29;20056;-76
2023/03/24 08:41:45;;;;;;;26.50;4.13;;;10.50;99.90;;;;;;4887249;29;20040;-76
2023/03/24 08:44:12;;;;;;;24.77;4.00;;;10.30;99.90;;;;;;4873346;29;20127;-76
2023/03/24 08:46:38;;;;;;;27.40;4.53;;;10.20;99.90;;;;;;4871896;29;20289;-77
2023/03/24 08:49:04;;;;;;;21.45;3.63;;;10.20;99.90;;;;;;4906964;29;20150;-78
2023/03/24 08:51:30;;;;;;;23.67;3.77;;;10.30;99.90;;;;;;4873792;29;20060;-76
2023/03/24 08:53:56;;;;;;;18.77;3.50;;;10.50;99.90;;;;;;4885746;29;20048;-75
2023/03/24 08:56:22;;;;;;;26.00;4.77;;;10.50;99.90;;;;;;4876526;29;20055;-76
2023/03/24 08:58:50;;;;;;;23.02;4.18;;;10.60;99.90;;;;;;4876633;29;20543;-76
2023/03/24 09:01:17;;;;;;;27.83;4.80;;;10.60;99.90;;;;;;4892972;29;20076;-75
2023/03/24 09:03:45;;;;;;;19.07;4.03;;;10.70;99.90;;;;;;4878257;29;20295;-76
2023/03/24 09:06:11;;;;;;;23.70;4.68;;;10.60;99.90;;;;;;4877218;29;20304;-75
2023/03/24 09:08:37;;;;;;;21.63;4.37;;;10.60;99.90;;;;;;4893463;29;20032;-76
2023/03/24 09:11:04;;;;;;;26.13;5.03;;;10.70;99.90;;;;;;4888766;29;20362;-76
2023/03/24 09:13:30;;;;;;;25.60;4.93;;;10.80;99.90;;;;;;4894982;29;20048;-76
2023/03/24 09:16:01;;;;;;;19.70;3.40;;;10.80;99.90;;;;;;4894611;29;20507;-76
2023/03/24 09:18:27;;;;;;;23.43;3.63;;;10.90;99.90;;;;;;4893818;29;20040;-75
2023/03/24 09:20:53;;;;;;;21.03;3.43;;;11.00;99.90;;;;;;4888689;29;20412;-76
2023/03/24 09:23:20;;;;;;;25.40;4.57;;;10.90;99.90;;;;;;4878141;29;20281;-76
2023/03/24 09:25:49;;;;;;;20.77;3.90;;;10.90;99.90;;;;;;4893072;29;20040;-77
2023/03/24 09:28:15;;;;;;;19.87;3.27;;;10.80;99.90;;;;;;4892151;29;20288;-76
2023/03/24 09:30:42;;;;;;;21.90;3.83;;;10.70;99.90;;;;;;4885774;29;20281;-75
2023/03/24 09:33:07;;;;;;;18.70;3.57;;;10.60;99.90;;;;;;4887150;29;20069;-77
2023/03/24 09:35:33;;;;;;;21.23;3.80;;;10.70;99.90;;;;;;4885198;29;20280;-77
2023/03/24 09:37:59;;;;;;;20.90;3.23;;;10.70;99.90;;;;;;4883826;29;20072;-77
2023/03/24 09:40:30;;;;;;;21.90;3.10;;;10.60;99.90;;;;;;4887129;29;20642;-77
2023/03/24 09:43:30;;;;;;;20.20;3.33;;;10.50;99.90;;;;;;4888428;29;20099;-76
2023/03/24 09:45:58;;;;;;;17.17;2.80;;;10.60;99.90;;;;;;4890958;29;20276;-77
2023/03/24 09:48:52;;;;;;;20.70;3.10;;;10.70;99.90;;;;;;4881183;29;20107;-77
2023/03/24 09:51:25;;;;;;;23.67;3.50;;;10.70;99.90;;;;;;4873311;29;20277;-76
2023/03/24 09:53:53;;;;;;;18.73;3.57;;;10.90;99.90;;;;;;4881229;29;20280;-77
2023/03/24 09:56:21;;;;;;;22.07;3.20;;;10.90;99.90;;;;;;4870294;29;20272;-76
2023/03/24 09:59:03;;;;;;;26.60;3.80;;;10.80;99.90;;;;;;4864358;29;20374;-76
2023/03/24 10:01:29;;;;;;;19.03;3.50;;;10.80;99.90;;;;;;4883468;29;20356;-77
2023/03/24 10:03:58;;;;;;;16.40;3.20;;;10.90;99.90;;;;;;4868188;29;20442;-76
2023/03/24 10:06:38;;;;;;;18.73;3.40;;;11.10;99.90;;;;;;4883523;29;20384;-77
2023/03/24 10:09:14;;;;;;;24.33;3.77;;;11.20;99.90;;;;;;4886652;29;20336;-76
2023/03/24 10:12:18;;;;;;;15.43;2.90;;;11.30;99.90;;;;;;4889416;29;20308;-76
2023/03/24 10:14:50;;;;;;;21.53;3.87;;;11.30;99.90;;;;;;4887112;29;20285;-77
2023/03/24 10:17:18;;;;;;;21.90;4.37;;;11.30;99.90;;;;;;4887100;29;20284;-76
2023/03/24 10:20:14;;;;;;;24.57;3.30;;;11.20;99.90;;;;;;4883182;29;20314;-76
2023/03/24 10:23:20;;;;;;;21.92;3.10;;;11.00;99.90;;;;;;4892639;29;20302;-77
2023/03/24 10:25:55;;;;;;;20.20;2.95;;;10.90;99.90;;;;;;4879577;29;20157;-76
2023/03/24 10:28:47;;;;;;;21.30;3.17;;;10.90;99.90;;;;;;4896001;29;20044;-76
2023/03/24 10:31:15;;;;;;;26.20;4.00;;;11.00;99.90;;;;;;4867804;29;20354;-76
2023/03/24 10:33:43;;;;;;;17.10;3.00;;;11.20;99.90;;;;;;4874860;29;20289;-76
2023/03/24 10:36:18;;;;;;;21.73;4.23;;;11.30;99.90;;;;;;4877500;29;20296;-76
2023/03/24 10:38:44;;;;;;;16.13;2.67;;;11.30;99.90;;;;;;4888725;29;20288;-76
2023/03/24 10:41:22;;;;;;;21.30;3.27;;;11.40;99.90;;;;;;4874449;29;20309;-76
2023/03/24 10:43:52;;;;;;;22.03;4.40;;;11.50;99.90;;;;;;4876125;29;20059;-76
2023/03/24 10:46:22;;;;;;;23.17;3.20;;;11.60;99.90;;;;;;4872789;29;20646;-76
2023/03/24 10:48:50;;;;;;;24.10;4.20;;;11.80;99.90;;;;;;4893227;29;20284;-76
2023/03/24 10:51:33;;;;;;;20.83;3.37;;;12.00;99.90;;;;;;4878107;29;20309;-76
2023/03/24 10:54:11;;;;;;;21.77;3.77;;;12.00;99.90;;;;;;4877943;29;20348;-75
2023/03/24 10:56:47;;;;;;;16.87;2.73;;;12.20;99.90;;;;;;4877742;29;20292;-75
2023/03/24 11:00:00;;;;;;;20.20;4.00;;;12.40;99.90;;;;;;4892329;29;20509;-76
2023/03/24 11:02:29;;;;;;;14.63;2.93;;;12.60;99.90;;;;;;4797018;29;20357;-76
2023/03/24 11:05:12;;;;;;;19.97;3.77;;;12.70;99.90;;;;;;4858004;29;21771;-76
2023/03/24 11:07:47;;;;;;;22.90;3.73;;;12.70;99.90;;;;;;4873105;29;20363;-76
2023/03/24 11:10:17;;;;;;;17.27;2.93;;;12.80;99.90;;;;;;4884083;29;20360;-76
2023/03/24 11:13:01;;;;;;;19.37;3.60;;;12.70;99.90;;;;;;4876492;29;20363;-76
2023/03/24 11:15:29;;;;;;;16.03;3.23;;;12.60;99.90;;;;;;4878536;29;20308;-76
2023/03/24 11:18:10;;;;;;;21.47;3.17;;;12.50;99.90;;;;;;4878651;29;20324;-75
2023/03/24 11:21:02;;;;;;;17.67;3.10;;;12.50;99.90;;;;;;4889443;29;20289;-76
2023/03/24 11:23:43;;;;;;;18.87;2.63;;;12.40;99.90;;;;;;4862455;29;20290;-76
2023/03/24 11:26:39;;;;;;;17.13;3.50;;;12.60;99.90;;;;;;4875624;29;20311;-76
2023/03/24 11:29:17;;;;;;;16.50;2.97;;;12.70;99.90;;;;;;4887323;29;20687;-76
2023/03/24 11:32:04;;;;;;;17.03;2.53;;;12.80;99.90;;;;;;4878600;29;20184;-76
2023/03/24 11:34:40;;;;;;;18.27;3.23;;;13.00;99.90;;;;;;4874929;29;20280;-76
2023/03/24 11:37:12;;;;;;;18.63;3.03;;;13.10;99.90;;;;;;4878333;29;20293;-76
2023/03/24 11:39:39;;;;;;;19.50;3.53;;;13.00;99.90;;;;;;4908767;29;20289;-76
2023/03/24 11:42:04;;;;;;;15.90;3.73;;;12.80;99.90;;;;;;4875045;29;20413;-77
2023/03/24 11:44:37;;;;;;;16.43;2.90;;;12.70;99.90;;;;;;4888352;29;20308;-77
2023/03/24 11:47:39;;;;;;;20.33;3.03;;;12.80;99.90;;;;;;4867181;29;20492;-76
2023/03/24 11:50:07;;;;;;;16.87;3.90;;;12.90;99.90;;;;;;4814538;29;20303;-76
2023/03/24 11:52:44;;;;;;;18.93;2.47;;;12.80;99.90;;;;;;4877057;29;20828;-76
2023/03/24 11:55:41;;;;;;;16.60;3.23;;;12.80;99.90;;;;;;4878123;29;20317;-76
2023/03/24 11:58:42;;;;;;;18.47;2.83;;;12.80;99.90;;;;;;4867948;29;20356;-76
2023/03/24 12:01:10;;;;;;;22.70;3.33;;;12.90;99.90;;;;;;4884501;29;20305;-77
2023/03/24 12:04:07;;;;;;;16.83;2.67;;;12.80;99.90;;;;;;4892161;29;20289;-76
2023/03/24 12:07:01;;;;;;;18.70;3.20;;;12.70;99.90;;;;;;4883888;29;20324;-76
2023/03/24 12:09:39;;;;;;;23.33;2.90;;;12.60;99.90;;;;;;4890449;29;20319;-76
2023/03/24 12:12:29;;;;;;;16.17;3.10;;;12.60;99.90;;;;;;4870619;29;20742;-76
2023/03/24 12:15:16;;;;;;;17.07;2.73;;;12.70;99.90;;;;;;4876093;29;20285;-76
2023/03/24 12:17:52;;;;;;;12.97;2.37;;;12.90;99.90;;;;;;4875232;29;20288;-77
2023/03/24 12:20:30;;;;;;;15.07;2.57;;;12.90;99.90;;;;;;4887158;29;20322;-77
2023/03/24 12:23:17;;;;;;;18.10;2.47;;;12.80;99.90;;;;;;4880635;29;20348;-76
2023/03/24 12:26:05;;;;;;;17.07;2.90;;;12.80;99.90;;;;;;4873449;29;20306;-76
2023/03/24 12:28:57;;;;;;;17.67;2.57;;;12.90;99.90;;;;;;4876563;29;20344;-76
2023/03/24 12:31:47;;;;;;;16.53;3.17;;;12.90;99.90;;;;;;4888232;29;20313;-76
2023/03/24 12:34:38;;;;;;;13.83;2.90;;;12.90;99.90;;;;;;4882215;29;20292;-76
2023/03/24 12:37:52;;;;;;;15.80;2.60;;;12.80;99.90;;;;;;4884989;29;20284;-76
2023/03/24 12:40:54;;;;;;;17.33;3.00;;;12.80;99.90;;;;;;4797616;29;20334;-77
2023/03/24 12:43:41;;;;;;;10.90;2.00;;;12.70;99.90;;;;;;4819571;29;20406;-76
2023/03/24 12:46:22;;;;;;;14.23;2.90;;;12.70;99.90;;;;;;4883865;29;20352;-76
2023/03/24 12:49:19;;;;;;;14.33;2.93;;;12.70;99.60;;;;;;4871674;29;20450;-77
2023/03/24 12:51:53;;;;;;;17.07;2.33;;;12.50;99.90;;;;;;4891642;29;20320;-77
2023/03/24 12:54:32;;;;;;;19.15;2.92;;;12.50;99.90;;;;;;4890615;29;20365;-76
2023/03/24 12:57:04;;;;;;;12.73;1.90;;;12.70;92.70;;;;;;4886912;29;20140;-76
2023/03/24 12:59:37;;;;;;;21.80;2.93;;;12.80;93.80;;;;;;4874079;29;20690;-76
2023/03/24 13:02:29;;;;;;;16.17;2.60;;;12.90;91.90;;;;;;4889143;29;20312;-76
2023/03/24 13:05:04;;;;;;;11.27;2.37;;;12.90;94.00;;;;;;4882939;29;20378;-77
2023/03/24 13:07:36;;;;;;;12.52;2.63;;;12.90;91.80;;;;;;4893307;29;20289;-77
2023/03/24 13:10:05;;;;;;;20.83;3.63;;;12.90;87.20;;;;;;4892606;29;20048;-76
2023/03/24 13:12:46;;;;;;;14.47;1.63;;;13.00;89.40;;;;;;4884386;29;20320;-76